Time;durP1;ratioP1;P1;durP2;ratioP2;P2;SDS_P1;SDS_P2;PMS_P1;PMS_P2;Temp;Humidity;BMP_temperature;BMP_pressure;BME280_temperature;BME280_humidity;BME280_pressure;Samples;Min_cycle;Max_cycle;Signal;HPM_P1;HPM_P2
2022/12/17 13:07:22;;;;;;;19.92;10.57;;;;;;;0.82;61.07;94379.50;4990565;28;20050;-68
2022/12/17 13:09:52;;;;;;;16.15;8.02;;;;;;;0.98;60.19;94370.34;4990470;28;20046;-68
2022/12/17 13:12:25;;;;;;;14.77;6.95;;;;;;;1.02;59.87;94367.75;4990179;28;20402;-68
2022/12/17 13:14:57;;;;;;;12.37;6.37;;;;;;;0.72;60.32;94369.97;4990714;28;20406;-68
2022/12/17 13:17:34;;;;;;;11.88;5.93;;;;;;;0.04;63.02;94367.91;4990009;28;20437;-71
2022/12/17 13:20:25;;;;;;;11.50;5.55;;;;;;;0.12;64.06;94369.69;4989611;28;20380;-66
2022/12/17 13:23:23;;;;;;;10.63;5.78;;;;;;;0.56;62.06;94359.09;4989437;28;20046;-66
2022/12/17 13:26:12;;;;;;;11.20;5.30;;;;;;;0.27;62.15;94368.25;4989146;28;20742;-68
2022/12/17 13:28:39;;;;;;;29.90;15.20;;;;;;;-1.32;65.93;94364.88;4972079;28;20053;-69
2022/12/17 13:31:16;;;;;;;38.03;16.20;;;;;;;-0.77;67.24;94370.25;4990414;28;20495;-67
2022/12/17 13:33:53;;;;;;;18.65;9.27;;;;;;;-0.36;64.95;94368.53;4989379;28;20246;-67
2022/12/17 13:36:48;;;;;;;15.82;8.15;;;;;;;-0.05;64.23;94368.03;4989990;28;20057;-67
2022/12/17 13:39:18;;;;;;;17.67;9.02;;;;;;;-0.45;66.49;94372.13;4990293;28;20047;-68
2022/12/17 13:41:44;;;;;;;14.10;6.80;;;;;;;-0.13;64.69;94379.72;4988976;28;20057;-69
2022/12/17 13:44:36;;;;;;;13.63;7.03;;;;;;;-0.48;66.04;94380.91;4990280;28;20058;-67
2022/12/17 13:47:03;;;;;;;32.75;16.08;;;;;;;-1.28;69.13;94395.41;4989562;28;20074;-67
2022/12/17 13:49:30;;;;;;;29.45;14.43;;;;;;;-0.89;69.01;94400.63;4989463;28;20049;-67
2022/12/17 13:52:17;;;;;;;29.05;13.20;;;;;;;-0.51;67.83;94394.25;4990084;28;20057;-67
2022/12/17 13:54:43;;;;;;;36.27;17.73;;;;;;;-1.48;69.29;94404.25;4989210;28;20698;-67
2022/12/17 13:57:16;;;;;;;33.08;16.20;;;;;;;-1.71;72.42;94401.88;4989749;28;20046;-66
2022/12/17 13:59:51;;;;;;;23.70;11.68;;;;;;;-1.20;70.21;94391.06;4988903;28;20790;-68
2022/12/17 14:02:33;;;;;;;13.70;6.60;;;;;;;-0.89;68.37;94398.72;4976714;28;20050;-64
2022/12/17 14:05:02;;;;;;;30.33;14.30;;;;;;;-1.91;72.67;94410.66;4989304;28;20154;-65
2022/12/17 14:07:37;;;;;;;22.73;10.97;;;;;;;-1.63;73.50;94419.88;4989434;28;20054;-66
2022/12/17 14:10:13;;;;;;;21.17;9.50;;;;;;;-1.05;71.29;94416.59;4988441;28;20055;-66
2022/12/17 14:12:40;;;;;;;18.38;8.65;;;;;;;-0.97;71.75;94423.06;4986839;28;20049;-66
2022/12/17 14:15:20;;;;;;;17.33;7.85;;;;;;;-1.03;71.77;94422.44;4990108;28;20576;-66
2022/12/17 14:17:48;;;;;;;22.63;11.57;;;;;;;-0.94;72.58;94423.19;4988318;28;20555;-68
2022/12/17 14:20:19;;;;;;;20.63;9.03;;;;;;;-1.36;73.15;94423.19;4989301;28;20069;-66
2022/12/17 14:22:49;;;;;;;44.08;19.10;;;;;;;-1.17;73.35;94419.25;4989710;28;20042;-67
2022/12/17 14:25:23;;;;;;;37.10;15.77;;;;;;;-1.35;73.66;94430.13;4989180;28;20055;-66
2022/12/17 14:27:59;;;;;;;38.13;15.82;;;;;;;-1.38;73.65;94425.41;4976828;28;20053;-68
2022/12/17 14:30:31;;;;;;;23.27;11.30;;;;;;;-1.43;73.50;94429.09;4989046;28;20050;-67
2022/12/17 14:32:58;;;;;;;13.90;6.50;;;;;;;-1.62;73.33;94432.19;4989845;28;20053;-67
2022/12/17 14:35:28;;;;;;;12.85;6.45;;;;;;;-1.78;73.69;94436.56;4989151;28;20750;-66
2022/12/17 14:37:55;;;;;;;17.23;8.32;;;;;;;-1.87;74.06;94446.56;4989833;28;20049;-67
2022/12/17 14:40:25;;;;;;;21.10;8.20;;;;;;;-2.01;74.75;94447.59;4989477;28;20079;-67
2022/12/17 14:42:58;;;;;;;16.52;7.40;;;;;;;-2.21;75.48;94442.91;4989290;28;20049;-67
2022/12/17 14:45:27;;;;;;;17.10;8.33;;;;;;;-2.20;75.08;94447.16;4989677;28;20428;-66
2022/12/17 14:47:57;;;;;;;13.52;6.07;;;;;;;-2.38;75.85;94443.72;5004427;28;20049;-66
2022/12/17 14:50:28;;;;;;;14.88;6.68;;;;;;;-2.50;76.34;94443.59;4989070;28;20415;-66
2022/12/17 14:52:56;;;;;;;14.68;7.50;;;;;;;-2.70;76.85;94445.84;4989809;28;20046;-65
2022/12/17 14:55:29;;;;;;;16.17;7.82;;;;;;;-2.70;76.48;94448.53;4991578;28;20046;-65
2022/12/17 14:58:14;;;;;;;17.27;8.17;;;;;;;-3.05;77.76;94447.78;4992748;28;20096;-66
2022/12/17 15:01:03;;;;;;;14.95;7.30;;;;;;;-3.13;78.46;94444.00;4991995;28;20753;-64
2022/12/17 15:03:38;;;;;;;11.85;6.40;;;;;;;-3.09;78.23;94444.16;4991948;28;20035;-65
2022/12/17 15:06:08;;;;;;;16.85;8.30;;;;;;;-3.27;78.24;94462.13;4993048;28;20061;-65
2022/12/17 15:08:39;;;;;;;19.00;8.65;;;;;;;-3.52;79.65;94447.56;4992737;28;20122;-65
2022/12/17 15:11:06;;;;;;;15.80;7.80;;;;;;;-3.56;79.38;94457.34;4993116;28;20069;-65
2022/12/17 15:13:33;;;;;;;16.35;6.82;;;;;;;-3.61;79.37;94460.97;4992462;28;20042;-64
2022/12/17 15:15:59;;;;;;;36.47;12.15;;;;;;;-3.81;80.50;94462.34;4992509;28;20119;-65
2022/12/17 15:18:26;;;;;;;37.65;12.32;;;;;;;-4.28;81.45;94470.03;4992073;28;20046;-65
2022/12/17 15:20:53;;;;;;;39.20;14.65;;;;;;;-4.11;81.69;94472.78;4992298;28;20046;-65
2022/12/17 15:23:22;;;;;;;22.63;9.83;;;;;;;-4.12;81.56;94476.59;4992484;28;20038;-64
2022/12/17 15:25:50;;;;;;;22.63;10.27;;;;;;;-4.16;82.44;94483.66;4992041;28;20043;-65
2022/12/17 15:28:18;;;;;;;15.88;7.63;;;;;;;-4.23;82.51;94478.72;4992010;28;20415;-65
2022/12/17 15:30:47;;;;;;;12.82;5.15;;;;;;;-4.53;83.25;94488.31;4991676;28;20088;-64
2022/12/17 15:33:14;;;;;;;13.65;5.60;;;;;;;-4.82;85.47;94486.88;4991811;28;20410;-64
2022/12/17 15:35:42;;;;;;;13.83;5.73;;;;;;;-4.69;85.33;94489.81;4992014;28;20052;-66
2022/12/17 15:38:10;;;;;;;13.32;5.80;;;;;;;-4.73;85.96;94497.66;4992670;28;20046;-66
2022/12/17 15:40:37;;;;;;;11.90;5.30;;;;;;;-4.52;85.68;94499.84;4991889;28;20035;-66
2022/12/17 15:43:13;;;;;;;10.88;4.85;;;;;;;-4.65;84.72;94506.84;4977905;28;20050;-66
2022/12/17 15:45:46;;;;;;;19.00;8.07;;;;;;;-4.76;85.28;94500.94;4991649;28;20923;-67
2022/12/17 15:48:17;;;;;;;16.43;7.17;;;;;;;-4.80;85.64;94508.00;4992277;28;20043;-66
2022/12/17 15:50:43;;;;;;;19.52;8.23;;;;;;;-4.85;85.60;94506.25;4990870;28;21592;-65
2022/12/17 15:53:10;;;;;;;21.52;9.45;;;;;;;-4.86;85.63;94507.31;4992171;28;20050;-66
2022/12/17 15:55:38;;;;;;;31.30;11.70;;;;;;;-4.89;84.49;94507.94;4991791;28;20042;-66
2022/12/17 15:58:06;;;;;;;47.72;17.75;;;;;;;-4.99;84.08;94510.84;4991697;28;20050;-66
2022/12/17 16:00:33;;;;;;;75.93;31.67;;;;;;;-5.30;85.01;94508.84;4991364;28;20038;-66
2022/12/17 16:03:00;;;;;;;122.75;47.05;;;;;;;-5.26;85.40;94514.38;4991806;28;20054;-66
2022/12/17 16:05:27;;;;;;;46.25;20.83;;;;;;;-5.19;84.86;94513.97;4990423;28;20046;-65
2022/12/17 16:07:57;;;;;;;21.70;9.68;;;;;;;-5.37;86.68;94505.81;4991768;28;20054;-65
2022/12/17 16:10:24;;;;;;;27.08;11.60;;;;;;;-5.23;85.99;94511.91;4991443;28;20046;-65
2022/12/17 16:12:51;;;;;;;25.07;10.30;;;;;;;-5.24;86.66;94510.31;4991095;28;20495;-66
2022/12/17 16:15:18;;;;;;;19.35;8.75;;;;;;;-5.17;87.22;94509.91;4991223;28;20054;-65
2022/12/17 16:17:45;;;;;;;20.63;9.48;;;;;;;-5.15;85.40;94517.63;4991007;28;20370;-66
2022/12/17 16:20:12;;;;;;;19.50;8.30;;;;;;;-5.19;85.69;94511.28;4991128;28;20418;-67
2022/12/17 16:22:39;;;;;;;14.07;5.85;;;;;;;-5.25;86.11;94513.31;4989759;28;20042;-67
2022/12/17 16:25:06;;;;;;;16.00;6.70;;;;;;;-5.22;86.81;94510.81;4989659;28;20042;-66
2022/12/17 16:27:33;;;;;;;22.58;10.13;;;;;;;-5.29;85.86;94514.97;4987884;28;21500;-65
2022/12/17 16:30:00;;;;;;;21.27;9.25;;;;;;;-5.44;87.31;94510.75;4990309;28;20065;-65
2022/12/17 16:32:26;;;;;;;14.45;5.60;;;;;;;-5.31;87.22;94517.97;4975216;28;20537;-63
2022/12/17 16:35:01;;;;;;;16.52;6.40;;;;;;;-5.24;86.92;94510.31;4987192;28;20046;-64
2022/12/17 16:37:28;;;;;;;32.80;12.07;;;;;;;-5.30;86.76;94508.84;4990831;28;20064;-64
2022/12/17 16:39:54;;;;;;;53.20;19.92;;;;;;;-5.50;86.31;94515.41;4990716;28;20463;-65
2022/12/17 16:42:26;;;;;;;54.15;19.75;;;;;;;-5.61;86.44;94508.69;4989849;28;20506;-64
2022/12/17 16:44:52;;;;;;;37.58;13.73;;;;;;;-5.68;87.01;94509.09;4989524;28;20478;-64
2022/12/17 16:47:19;;;;;;;37.20;14.55;;;;;;;-5.82;87.20;94509.09;4986775;28;20065;-64
2022/12/17 16:49:49;;;;;;;34.57;15.60;;;;;;;-5.78;88.07;94498.59;4984968;28;20042;-64
2022/12/17 16:52:15;;;;;;;26.33;11.00;;;;;;;-5.89;87.45;94507.94;4990790;28;20147;-64
2022/12/17 16:54:42;;;;;;;22.98;9.35;;;;;;;-5.86;87.35;94501.97;4990921;28;20446;-65
2022/12/17 16:57:10;;;;;;;29.65;12.32;;;;;;;-6.36;89.62;94507.19;4984422;28;20051;-65
2022/12/17 16:59:37;;;;;;;28.20;11.40;;;;;;;-6.16;88.95;94503.38;4990149;28;20042;-65
2022/12/17 17:02:04;;;;;;;33.60;14.33;;;;;;;-6.08;88.54;94511.47;4989772;28;20058;-65
2022/12/17 17:04:31;;;;;;;28.80;12.13;;;;;;;-6.89;90.57;94505.69;4989027;28;20069;-65
2022/12/17 17:06:58;;;;;;;23.48;10.10;;;;;;;-6.33;91.44;94515.41;4990538;28;20053;-65
2022/12/17 17:09:24;;;;;;;27.60;12.48;;;;;;;-6.27;90.02;94524.16;4989899;28;20046;-64
2022/12/17 17:11:56;;;;;;;37.53;15.18;;;;;;;-6.41;90.82;94523.31;4989870;28;20054;-65
2022/12/17 17:14:22;;;;;;;37.30;14.60;;;;;;;-6.46;90.80;94529.53;4990448;28;20124;-65
2022/12/17 17:16:50;;;;;;;33.70;14.35;;;;;;;-6.47;90.11;94526.06;4990619;28;20100;-65
2022/12/17 17:19:17;;;;;;;40.00;16.45;;;;;;;-6.55;90.72;94521.41;4990281;28;20049;-65
2022/12/17 17:21:52;;;;;;;40.35;15.20;;;;;;;-6.75;91.69;94527.06;4990367;28;20435;-65
2022/12/17 17:24:21;;;;;;;36.22;13.73;;;;;;;-6.68;91.66;94525.63;4990127;28;20042;-65
2022/12/17 17:26:50;;;;;;;39.20;14.50;;;;;;;-6.69;91.20;94521.34;4990035;28;20174;-65
2022/12/17 17:29:17;;;;;;;36.10;14.07;;;;;;;-6.76;92.13;94525.47;4990123;28;20046;-65
2022/12/17 17:31:44;;;;;;;49.17;16.92;;;;;;;-6.75;91.47;94527.88;4990241;28;20042;-65
2022/12/17 17:34:30;;;;;;;40.22;15.60;;;;;;;-6.74;92.37;94533.97;4989395;28;20570;-65
2022/12/17 17:36:57;;;;;;;99.85;26.80;;;;;;;-6.75;92.39;94527.88;4990363;28;20403;-66
2022/12/17 17:39:24;;;;;;;67.43;22.80;;;;;;;-6.81;92.61;94526.34;4990172;28;20491;-66
2022/12/17 17:41:51;;;;;;;56.65;19.15;;;;;;;-6.84;92.61;94525.06;4989500;28;20120;-66
2022/12/17 17:44:18;;;;;;;62.20;20.23;;;;;;;-6.85;92.53;94528.81;4990063;28;20046;-66
2022/12/17 17:46:44;;;;;;;54.97;19.17;;;;;;;-6.99;93.41;94525.28;4990390;28;20038;-66
2022/12/17 17:49:11;;;;;;;64.68;23.67;;;;;;;-6.96;93.51;94527.41;4990207;28;20062;-66
2022/12/17 17:51:40;;;;;;;56.83;21.73;;;;;;;-7.13;93.40;94533.22;4989926;28;20045;-66
2022/12/17 17:54:28;;;;;;;55.47;21.40;;;;;;;-7.07;92.39;94533.94;4989655;28;20384;-67
2022/12/17 17:56:54;;;;;;;50.80;20.30;;;;;;;-7.14;91.96;94538.84;4975334;28;20047;-66
2022/12/17 17:59:22;;;;;;;46.97;17.35;;;;;;;-7.19;93.07;94530.94;4986170;28;20064;-66
2022/12/17 18:01:59;;;;;;;49.35;18.42;;;;;;;-7.41;93.99;94537.59;4988422;28;20046;-66
2022/12/17 18:04:26;;;;;;;42.07;16.63;;;;;;;-7.54;94.17;94541.78;4989308;28;20042;-66
2022/12/17 18:06:53;;;;;;;47.72;18.52;;;;;;;-7.71;95.38;94550.22;4990242;28;20055;-66
2022/12/17 18:09:40;;;;;;;52.22;19.50;;;;;;;-7.64;95.58;94556.03;4989519;28;20565;-66
2022/12/17 18:14:52;;;;;;;61.55;21.02;;;;;;;-7.75;95.40;94564.41;4989152;28;20458;-65
2022/12/17 18:17:38;;;;;;;61.63;20.40;;;;;;;-7.58;94.77;94561.31;4989395;28;20665;-65
2022/12/17 18:20:05;;;;;;;63.47;20.83;;;;;;;-7.53;94.88;94571.88;4989479;28;20104;-66
2022/12/17 18:22:32;;;;;;;53.20;20.50;;;;;;;-7.55;95.17;94561.50;4970179;28;20109;-65
2022/12/17 18:24:59;;;;;;;48.47;17.75;;;;;;;-7.55;94.38;94564.16;4977268;28;20103;-67
2022/12/17 18:27:25;;;;;;;54.80;19.75;;;;;;;-7.53;95.03;94567.34;4989251;28;20046;-66
2022/12/17 18:29:52;;;;;;;53.60;20.53;;;;;;;-7.52;94.46;94562.84;4993139;28;20042;-66
2022/12/17 18:32:19;;;;;;;59.63;23.80;;;;;;;-7.60;94.22;94571.47;4993427;28;20096;-66
2022/12/17 18:34:45;;;;;;;68.28;27.42;;;;;;;-7.64;93.12;94565.91;4993325;28;20103;-66
2022/12/17 18:37:12;;;;;;;65.07;24.35;;;;;;;-7.72;92.82;94572.66;4993698;28;20050;-66
2022/12/17 18:39:39;;;;;;;61.45;23.70;;;;;;;-7.69;92.78;94572.06;4993554;28;20402;-66
2022/12/17 18:44:52;;;;;;;62.38;23.92;;;;;;;-7.84;94.83;94574.91;4992448;28;21561;-64
2022/12/17 18:47:19;;;;;;;66.35;24.10;;;;;;;-7.85;94.22;94568.00;4993236;28;20054;-64
2022/12/17 18:49:45;;;;;;;58.35;23.20;;;;;;;-7.93;94.61;94568.59;4992981;28;20057;-65
2022/12/17 18:52:12;;;;;;;58.92;22.52;;;;;;;-8.14;94.37;94582.13;4992992;28;20066;-65
2022/12/17 18:54:43;;;;;;;56.90;22.37;;;;;;;-8.01;94.21;94580.66;4992637;28;21668;-65
2022/12/17 18:57:10;;;;;;;60.70;22.33;;;;;;;-8.01;94.98;94587.88;4976288;28;20415;-65
2022/12/17 18:59:39;;;;;;;67.65;27.90;;;;;;;-7.95;94.65;94581.41;4991113;28;20107;-65
2022/12/17 19:02:10;;;;;;;63.70;24.35;;;;;;;-7.96;94.71;94587.84;4992520;28;20491;-65
2022/12/17 19:04:37;;;;;;;60.08;25.33;;;;;;;-8.01;94.09;94586.00;4992277;28;20038;-65
2022/12/17 19:07:04;;;;;;;64.60;26.10;;;;;;;-7.99;94.00;94593.72;4993105;28;20414;-65
2022/12/17 19:09:35;;;;;;;56.22;22.20;;;;;;;-8.11;93.01;94586.91;4992754;28;20049;-65
2022/12/17 19:12:04;;;;;;;56.78;22.38;;;;;;;-8.18;93.22;94589.09;4992118;28;20103;-66
2022/12/17 19:14:31;;;;;;;53.85;20.90;;;;;;;-8.12;92.79;94593.31;4992516;28;20050;-66
2022/12/17 19:16:57;;;;;;;50.72;19.83;;;;;;;-8.12;92.74;94592.53;4991763;28;20454;-65
2022/12/17 19:19:25;;;;;;;51.70;19.20;;;;;;;-8.23;93.92;94602.44;4992400;28;20050;-65
2022/12/17 19:21:58;;;;;;;55.80;20.77;;;;;;;-8.25;93.91;94601.94;4992580;28;20761;-65
2022/12/17 19:24:25;;;;;;;96.72;38.22;;;;;;;-8.32;93.22;94596.16;4992312;28;20052;-64
2022/12/17 19:26:52;;;;;;;56.05;21.35;;;;;;;-8.54;93.58;94604.63;4992178;28;20042;-65
2022/12/17 19:29:19;;;;;;;69.95;26.58;;;;;;;-8.40;93.94;94605.53;4992067;28;20054;-64
2022/12/17 19:31:47;;;;;;;62.53;25.40;;;;;;;-8.36;93.79;94603.91;4992716;28;20046;-65
2022/12/17 19:34:15;;;;;;;54.28;22.15;;;;;;;-8.39;94.45;94609.81;4990644;28;20050;-63
2022/12/17 19:36:43;;;;;;;58.72;24.45;;;;;;;-8.44;94.01;94617.84;4992388;28;20507;-67
2022/12/17 19:39:13;;;;;;;58.50;22.90;;;;;;;-8.36;94.14;94619.88;4991859;28;20316;-66
2022/12/17 19:41:39;;;;;;;57.50;22.70;;;;;;;-8.28;93.59;94631.81;4990533;28;20903;-66
2022/12/17 19:44:10;;;;;;;65.80;25.03;;;;;;;-8.25;94.87;94636.56;4992197;28;20068;-67
2022/12/17 19:46:37;;;;;;;62.88;23.92;;;;;;;-8.34;92.96;94639.03;4990468;28;20038;-66
2022/12/17 19:49:04;;;;;;;80.15;31.00;;;;;;;-8.35;92.28;94647.28;4991622;28;20054;-66
2022/12/17 19:51:32;;;;;;;93.40;32.80;;;;;;;-8.47;92.71;94656.47;4991860;28;20054;-66
2022/12/17 19:53:59;;;;;;;83.47;29.55;;;;;;;-8.49;92.95;94660.47;4992224;28;20480;-67
2022/12/17 19:56:33;;;;;;;84.33;28.80;;;;;;;-8.48;93.23;94657.53;4991133;28;20050;-65
2022/12/17 19:59:05;;;;;;;91.85;33.80;;;;;;;-8.56;92.71;94655.44;4990582;28;20512;-65
2022/12/17 20:01:39;;;;;;;97.00;37.88;;;;;;;-8.63;93.11;94647.00;4991280;28;20043;-67
2022/12/17 20:04:06;;;;;;;81.28;30.40;;;;;;;-8.59;94.01;94640.06;4991678;28;20043;-66
2022/12/17 20:06:34;;;;;;;65.65;23.83;;;;;;;-8.63;93.84;94639.03;4990243;28;20046;-66
2022/12/17 20:09:03;;;;;;;58.33;21.53;;;;;;;-8.66;94.13;94653.66;4991858;28;20046;-66
2022/12/17 20:11:33;;;;;;;71.78;26.48;;;;;;;-8.81;94.11;94650.28;4991053;28;20046;-66
2022/12/17 20:14:08;;;;;;;58.67;21.27;;;;;;;-8.89;93.16;94647.16;4990423;28;20515;-66
2022/12/17 20:16:40;;;;;;;47.63;17.90;;;;;;;-9.45;91.56;94639.47;4991434;28;20073;-66
2022/12/17 20:19:12;;;;;;;52.15;19.58;;;;;;;-9.50;91.84;94642.91;4989853;28;20046;-67
2022/12/17 20:21:40;;;;;;;54.07;19.97;;;;;;;-9.39;91.54;94637.59;4978720;28;20547;-66
2022/12/17 20:24:07;;;;;;;70.22;23.83;;;;;;;-9.42;94.56;94644.22;4987418;28;20515;-65
2022/12/17 20:26:35;;;;;;;74.13;26.98;;;;;;;-9.28;95.18;94641.75;4989260;28;20057;-64
2022/12/17 20:29:03;;;;;;;72.93;27.38;;;;;;;-9.17;94.46;94643.31;4991223;28;20038;-67
2022/12/17 20:31:30;;;;;;;60.30;23.67;;;;;;;-9.11;95.54;94634.25;4991119;28;20052;-66
2022/12/17 20:33:59;;;;;;;59.97;21.43;;;;;;;-8.91;97.15;94630.69;4990268;28;20048;-66
2022/12/17 20:36:26;;;;;;;68.68;25.23;;;;;;;-9.02;95.73;94636.34;4990986;28;20413;-66
2022/12/17 20:38:54;;;;;;;54.13;19.60;;;;;;;-9.07;95.53;94640.59;4991388;28;20046;-66
2022/12/17 20:41:24;;;;;;;60.40;20.92;;;;;;;-9.37;93.34;94633.56;4990381;28;20048;-66
2022/12/17 20:43:52;;;;;;;52.70;20.30;;;;;;;-9.33;92.23;94644.47;4990893;28;20038;-66
2022/12/17 20:46:20;;;;;;;54.63;19.20;;;;;;;-9.38;91.10;94637.28;4990568;28;20391;-64
2022/12/17 20:48:47;;;;;;;61.75;21.25;;;;;;;-9.60;92.04;94647.47;4989405;28;20406;-65
2022/12/17 20:51:23;;;;;;;55.92;20.40;;;;;;;-9.40;92.32;94647.41;4989935;28;20057;-64
2022/12/17 20:53:51;;;;;;;48.20;17.60;;;;;;;-9.49;94.22;94644.50;4991152;28;20046;-65
2022/12/17 20:56:22;;;;;;;54.75;18.77;;;;;;;-9.41;94.09;94640.50;4990143;28;20092;-66
2022/12/17 20:58:58;;;;;;;54.83;19.03;;;;;;;-9.50;94.73;94639.47;4990851;28;20066;-65
2022/12/17 21:01:26;;;;;;;47.47;17.27;;;;;;;-9.59;95.49;94633.94;4986107;28;20121;-65
2022/12/17 21:03:54;;;;;;;47.80;18.08;;;;;;;-9.60;96.58;94636.84;4990189;28;20046;-65
2022/12/17 21:06:22;;;;;;;45.92;18.25;;;;;;;-9.45;96.77;94644.78;4990433;28;20040;-65
2022/12/17 21:08:50;;;;;;;51.47;18.25;;;;;;;-9.40;95.26;94649.25;4990115;28;20046;-66
2022/12/17 21:11:21;;;;;;;55.43;18.17;;;;;;;-9.45;94.56;94647.44;4989511;28;20057;-65
2022/12/17 21:13:49;;;;;;;56.97;17.58;;;;;;;-9.47;94.41;94646.91;4989530;28;20078;-65
2022/12/17 21:16:37;;;;;;;48.38;17.90;;;;;;;-9.44;94.81;94649.00;4988916;28;20062;-64
2022/12/17 21:19:06;;;;;;;62.53;19.33;;;;;;;-9.62;95.03;94650.41;4990409;28;20046;-65
2022/12/17 21:21:34;;;;;;;50.53;16.15;;;;;;;-9.68;95.40;94639.00;4997601;28;20214;-65
2022/12/17 21:24:01;;;;;;;55.07;17.47;;;;;;;-9.50;95.10;94645.56;4994097;28;20034;-66
2022/12/17 21:26:36;;;;;;;50.15;17.35;;;;;;;-9.43;95.53;94647.16;4989067;28;20046;-65
2022/12/17 21:29:05;;;;;;;57.85;21.48;;;;;;;-9.22;94.79;94646.00;4988381;28;20051;-65
2022/12/17 21:31:36;;;;;;;76.85;26.67;;;;;;;-9.02;95.09;94642.44;4989394;28;20050;-65
2022/12/17 21:34:05;;;;;;;53.80;19.65;;;;;;;-8.83;96.38;94647.94;4990366;28;20046;-66
2022/12/17 21:36:33;;;;;;;35.30;12.73;;;;;;;-8.60;96.79;94645.66;4989610;28;20080;-65
2022/12/17 21:39:01;;;;;;;28.40;11.55;;;;;;;-8.42;97.11;94642.31;4989621;28;20046;-65
2022/12/17 21:41:37;;;;;;;36.47;12.30;;;;;;;-8.31;97.85;94640.31;4989816;28;20092;-65
2022/12/17 21:44:09;;;;;;;31.23;12.48;;;;;;;-8.27;97.28;94641.34;4989994;28;20054;-65
2022/12/17 21:46:36;;;;;;;32.55;12.10;;;;;;;-8.31;97.05;94657.13;4989248;28;20046;-65
2022/12/17 21:49:03;;;;;;;41.17;12.93;;;;;;;-8.38;97.17;94653.19;4989966;28;20139;-65
2022/12/17 21:51:31;;;;;;;37.78;13.27;;;;;;;-8.44;97.07;94657.78;4989434;28;20042;-65
2022/12/17 21:54:01;;;;;;;25.67;9.38;;;;;;;-8.50;97.43;94656.22;4989727;28;20479;-65
2022/12/17 21:56:34;;;;;;;29.77;10.48;;;;;;;-8.54;98.60;94663.97;4989575;28;20060;-65
2022/12/17 21:59:01;;;;;;;45.83;14.93;;;;;;;-8.51;98.13;94658.09;4989103;28;20064;-65
2022/12/17 22:01:31;;;;;;;32.00;12.70;;;;;;;-8.58;98.23;94670.91;4986536;28;20053;-65
2022/12/17 22:04:00;;;;;;;36.20;11.35;;;;;;;-8.58;98.42;94670.13;4992113;28;20049;-66
2022/12/17 22:06:29;;;;;;;35.83;13.48;;;;;;;-8.56;99.17;94671.41;4993038;28;20072;-65
2022/12/17 22:08:59;;;;;;;34.80;11.98;;;;;;;-8.41;98.55;94672.38;4993375;28;20034;-66
2022/12/17 22:11:43;;;;;;;18.40;6.88;;;;;;;-8.36;98.11;94673.13;4992981;28;20458;-66
2022/12/17 22:14:11;;;;;;;36.27;11.93;;;;;;;-8.36;97.93;94677.66;4992662;28;20054;-66
2022/12/17 22:16:47;;;;;;;40.10;13.07;;;;;;;-8.34;97.69;94678.97;4992591;28;20817;-65
2022/12/17 22:19:21;;;;;;;33.08;11.93;;;;;;;-8.54;97.96;94676.47;4993072;28;20557;-64
2022/12/17 22:21:50;;;;;;;28.90;9.85;;;;;;;-8.72;99.29;94678.69;5008349;28;20039;-65
2022/12/17 22:24:23;;;;;;;22.30;8.63;;;;;;;-8.82;100.00;94670.00;4992880;28;20457;-67
2022/12/17 22:26:50;;;;;;;25.23;9.67;;;;;;;-8.92;100.00;94668.97;4994058;28;20046;-67
2022/12/17 22:34:48;;;;;;;40.15;13.73;;;;;;;-9.05;100.00;94669.59;4992748;28;20406;-65
2022/12/17 22:37:35;;;;;;;41.08;13.80;;;;;;;-8.91;100.00;94669.78;4992608;28;20045;-67
2022/12/17 22:40:21;;;;;;;32.60;11.47;;;;;;;-8.81;100.00;94669.72;4993120;28;20491;-66
2022/12/17 22:43:28;;;;;;;43.17;12.82;;;;;;;-8.79;100.00;94672.09;4993198;28;20073;-66
2022/12/17 22:46:15;;;;;;;38.45;13.32;;;;;;;-8.76;100.00;94664.38;4991542;28;20704;-64
2022/12/17 22:48:42;;;;;;;39.47;13.35;;;;;;;-8.75;100.00;94673.13;4993359;28;20117;-65
2022/12/17 22:51:09;;;;;;;54.40;15.55;;;;;;;-8.80;100.00;94667.84;4992949;28;20045;-66
2022/12/17 22:53:42;;;;;;;46.17;14.00;;;;;;;-8.85;100.00;94669.47;4992082;28;21057;-65
2022/12/17 22:56:09;;;;;;;41.58;14.70;;;;;;;-8.67;100.00;94673.38;4993043;28;20065;-68
2022/12/17 22:58:56;;;;;;;41.78;12.80;;;;;;;-8.79;100.00;94677.41;4991768;28;20498;-65
2022/12/17 23:01:23;;;;;;;39.80;13.65;;;;;;;-8.80;100.00;94679.28;4991799;28;20046;-66
2022/12/17 23:03:58;;;;;;;53.28;15.60;;;;;;;-8.76;100.00;94680.31;5008031;28;20042;-67
2022/12/17 23:06:26;;;;;;;44.93;14.17;;;;;;;-8.62;100.00;94679.72;4992516;28;20050;-67
2022/12/17 23:08:53;;;;;;;41.25;13.57;;;;;;;-8.48;100.00;94681.47;4992693;28;20487;-64
2022/12/17 23:11:22;;;;;;;50.08;13.77;;;;;;;-8.52;100.00;94691.09;4992422;28;20116;-65
2022/12/17 23:13:50;;;;;;;56.75;14.95;;;;;;;-8.77;100.00;94681.41;4994042;28;20108;-66
2022/12/17 23:16:17;;;;;;;52.65;13.43;;;;;;;-8.65;100.00;94697.03;5003126;28;20042;-66
2022/12/17 23:18:46;;;;;;;63.97;13.67;;;;;;;-8.55;100.00;94683.66;4992921;28;20050;-66
2022/12/17 23:21:17;;;;;;;57.50;10.55;;;;;;;-8.51;100.00;94697.19;4992555;28;20487;-67
2022/12/17 23:23:43;;;;;;;46.13;13.30;;;;;;;-8.67;100.00;94705.28;4990236;28;20162;-67
2022/12/17 23:26:14;;;;;;;35.90;9.25;;;;;;;-8.71;100.00;94706.91;4992798;28;20520;-66
2022/12/17 23:28:42;;;;;;;42.90;11.65;;;;;;;-8.91;100.00;94697.19;4994695;28;20042;-66
2022/12/17 23:31:15;;;;;;;40.77;11.37;;;;;;;-8.94;100.00;94695.03;4991621;28;20050;-66
2022/12/17 23:33:42;;;;;;;51.95;12.88;;;;;;;-9.03;100.00;94694.03;4989718;28;20903;-65
2022/12/17 23:36:12;;;;;;;49.35;11.15;;;;;;;-9.01;100.00;94686.59;5005568;28;20479;-66
2022/12/17 23:38:39;;;;;;;50.42;10.85;;;;;;;-8.99;100.00;94680.97;5006071;28;20488;-66
2022/12/17 23:41:09;;;;;;;56.75;11.98;;;;;;;-8.92;100.00;94676.94;4990777;28;20416;-66
2022/12/17 23:43:37;;;;;;;31.43;9.37;;;;;;;-8.93;100.00;94685.19;4992289;28;20046;-66
2022/12/17 23:46:06;;;;;;;26.83;8.63;;;;;;;-8.95;100.00;94688.16;4979450;28;20060;-66
2022/12/17 23:48:35;;;;;;;24.98;8.30;;;;;;;-9.00;100.00;94690.03;4991813;28;20479;-66
2022/12/17 23:51:09;;;;;;;46.05;11.10;;;;;;;-9.01;100.00;94688.44;4991932;28;20058;-66
2022/12/17 23:53:36;;;;;;;26.00;8.88;;;;;;;-9.01;100.00;94683.94;4990074;28;20442;-67
2022/12/17 23:56:04;;;;;;;38.77;11.80;;;;;;;-9.10;100.00;94689.00;4992906;28;20081;-68
2022/12/17 23:58:31;;;;;;;40.58;11.20;;;;;;;-9.00;100.00;94690.81;5005942;28;20043;-66
